KQPB

2018-05-23 20:00:09Z

Plaintext report →

Temperature
High34.4 °C93.9 °F
Current30.3 °C86.5 °F
Low29.3 °C84.7 °F
Feels Like31.7 °C89.0 °F
Dewpoint18.6 °C65.5 °F
Winds
Speed and Direction0.5 m/s1.1 mi/h 0 kn150 °
Gust0.0 m/s0.00 mi/h 0 kn
SquallUnavailable
Pressure and Humidity
Pressure At Field Level1004.1 mb29.6 in
Pressure At Sea Level1006.6 mb29.7 in
Pressure Trend-0.8 mb-0.0 in
Pressure Tendency 8
Humidity51 %

Station Alarms & Warnings:

Ceilometer Alarms / Warnings:

Ceilometer Data Missing!
Historical Weather Phenomenon Graphs

Additional Information:

  METAR KQPB 232000Z AUTO 00000KT NCD 30/19 A2965 RMK AO2 SLP066 10344
  20293 58008 PWINO $=    
Cloud Cover
Layer 1 Undetected
Layer 2 Undetected
Layer 3 Undetected
Winds
2-minute Winds
Minimum0.0 m/s0.00 mi/h 0 kn42 °
Average0.7 m/s1.57 mi/h 1 kn117 °
Maximum1.7 m/s3.80 mi/h 3 kn175 °
10-minute Winds
Minimum0.0 m/s0.00 mi/h 0 kn352 °
Average1.0 m/s2.24 mi/h 1 kn90 °
Maximum2.1 m/s4.70 mi/h 4 kn175 °
Precipitation
IntensityUnavailable
Rainfall
1-hour Total0.00 mm0.00 in
3-hour Total0.00 mm0.00 in
6-hour Total0.00 mm0.00 in
24-hour Total0.00 mm0.00 in
Precipitation
1-hour TotalUnavailable
3-hour TotalUnavailable
6-hour TotalUnavailable
24-hour TotalUnavailable
Snowfall
1-hour TotalUnavailable
3-hour TotalUnavailable
6-hour TotalUnavailable
24-hour TotalUnavailable